Terminal Aerodrome Forecast
Issued by NWS

Home | Current Version | Previous Version | Text Only | Print | Product List | Glossary On
Versions: 1 2 3 4 5 6 7 8 9 10 11 12 13 14 15 16 17 18 19 20 21 22 23 24 25 26 27 28 29 30
364
FTUS41 KOKX 290540
TAFTEB
TAF
KTEB 290540Z 2906/3006 VRB03KT 6SM -SHRA OVC100
     FM290900 04005KT 4SM -SHRA OVC025
     FM291100 04007KT 2SM SHRA OVC015
     FM291400 36008KT 4SM -SHRA OVC015
     FM291600 35011G18KT 6SM -SHRA OVC045
     FM291800 36010G17KT P6SM BKN100
     FM292300 36006KT P6SM BKN250
     FM300200 VRB03KT P6SM BKN250=

USA.gov is the U.S. government's official web portal to all federal, state and local government web resources and services.